Time;durP1;ratioP1;P1;durP2;ratioP2;P2;SDS_P1;SDS_P2;PMS_P1;PMS_P2;Temp;Humidity;BMP_temperature;BMP_pressure;BME280_temperature;BME280_humidity;BME280_pressure;Samples;Min_cycle;Max_cycle;Signal;HPM_P1;HPM_P2
2023/05/21 07:22:56;;;;;;;8.10;7.00;;;;;;;-145.79;65.13;77474.78;5263056;28;20411;-79
2023/05/21 07:25:30;;;;;;;9.40;7.75;;;;;;;-145.79;64.60;77472.66;5256320;28;20480;-78
2023/05/21 07:28:02;;;;;;;9.13;7.68;;;;;;;-145.79;64.32;77464.19;5252401;28;20191;-82
2023/05/21 07:30:33;;;;;;;8.70;7.80;;;;;;;-145.79;64.55;77462.06;5267136;28;20063;-78
2023/05/21 07:33:04;;;;;;;9.35;8.13;;;;;;;-145.79;64.06;77470.53;5247709;28;20029;-82
2023/05/21 07:35:36;;;;;;;9.95;7.32;;;;;;;-145.79;64.46;77459.94;5249497;28;20030;-84
2023/05/21 07:38:07;;;;;;;8.75;7.95;;;;;;;-145.79;64.60;77453.59;5251539;28;20018;-84
2023/05/21 07:40:38;;;;;;;9.32;7.75;;;;;;;-145.79;64.49;77457.81;5253285;28;20542;-85
2023/05/21 07:43:11;;;;;;;11.43;9.10;;;;;;;-145.79;64.12;77453.59;5288171;28;20498;-83
2023/05/21 07:45:45;;;;;;;9.48;8.35;;;;;;;-145.79;64.06;77453.59;5275450;28;20518;-82
2023/05/21 07:48:17;;;;;;;8.68;7.78;;;;;;;-145.79;64.31;77440.88;5251145;28;20026;-85
2023/05/21 07:50:51;;;;;;;9.30;8.40;;;;;;;-145.79;64.16;77442.97;5263973;28;20075;-79
2023/05/21 07:53:22;;;;;;;9.45;8.52;;;;;;;-145.79;64.25;77428.16;5258367;28;20105;-85
2023/05/21 07:55:53;;;;;;;12.52;8.10;;;;;;;-145.79;63.90;77409.06;5248506;28;20425;-82
2023/05/21 07:58:25;;;;;;;8.98;8.18;;;;;;;-145.79;63.68;77411.19;5246112;28;20030;-85
2023/05/21 08:00:57;;;;;;;8.60;7.70;;;;;;;-145.79;63.11;77385.75;5240229;28;20026;-85
2023/05/21 08:03:31;;;;;;;9.95;8.95;;;;;;;-145.79;63.04;77398.47;5252041;28;20479;-85
2023/05/21 08:06:03;;;;;;;9.77;8.77;;;;;;;-145.79;62.80;77387.88;5258181;28;20021;-84
2023/05/21 08:08:34;;;;;;;8.95;8.13;;;;;;;-145.79;62.46;77370.91;5260784;28;20106;-85
2023/05/21 08:11:05;;;;;;;10.73;9.05;;;;;;;-145.79;62.67;77351.84;5260985;28;20429;-83
2023/05/21 08:13:36;;;;;;;13.57;12.32;;;;;;;-145.79;62.00;77332.75;5265919;28;20029;-82
2023/05/21 08:16:08;;;;;;;10.20;8.70;;;;;;;-145.79;62.33;77334.88;5264369;28;20029;-83
2023/05/21 08:18:40;;;;;;;9.10;8.20;;;;;;;-145.79;61.91;77337.00;5262521;28;20044;-81
2023/05/21 08:21:11;;;;;;;9.45;8.63;;;;;;;-145.79;62.31;77324.28;5253160;28;20046;-83
2023/05/21 08:23:43;;;;;;;11.77;9.85;;;;;;;-145.79;62.00;77322.16;5247985;28;20041;-84
2023/05/21 08:26:17;;;;;;;10.50;9.40;;;;;;;-145.79;61.91;77305.22;5253851;28;20025;-82
2023/05/21 08:28:49;;;;;;;10.00;8.98;;;;;;;-145.79;61.56;77294.59;5253806;28;20057;-84
2023/05/21 08:31:20;;;;;;;10.68;9.77;;;;;;;-145.79;61.40;77275.53;5254581;28;20492;-82
2023/05/21 08:33:53;;;;;;;12.80;9.88;;;;;;;-145.79;61.17;77284.00;5248279;28;20029;-82
2023/05/21 08:36:24;;;;;;;10.13;9.02;;;;;;;-145.79;61.00;77247.97;5246744;28;20045;-80
2023/05/21 08:38:55;;;;;;;10.20;9.20;;;;;;;-145.79;60.39;77273.41;5234443;28;20092;-80
2023/05/21 08:41:30;;;;;;;9.57;8.73;;;;;;;-145.79;61.05;77271.28;5244022;28;20041;-79
2023/05/21 08:44:01;;;;;;;11.65;10.13;;;;;;;-145.79;60.76;77258.56;5244778;28;20118;-80
2023/05/21 08:46:33;;;;;;;10.07;9.07;;;;;;;-145.79;60.66;77231.03;5244862;28;20115;-79
2023/05/21 08:49:10;;;;;;;9.88;8.90;;;;;;;-145.79;60.24;77228.91;5243581;28;20036;-79
2023/05/21 08:51:43;;;;;;;10.23;7.93;;;;;;;-145.79;60.14;77211.94;5232617;28;20032;-78
2023/05/21 08:54:14;;;;;;;12.80;9.13;;;;;;;-145.79;59.71;77209.81;5240532;28;20021;-78
2023/05/21 08:56:48;;;;;;;9.85;8.95;;;;;;;-145.79;58.97;77195.00;5236224;28;20396;-79
2023/05/21 08:59:20;;;;;;;12.68;9.30;;;;;;;-145.79;59.25;77173.78;5227571;28;20437;-81
2023/05/21 09:01:51;;;;;;;11.07;9.85;;;;;;;-145.79;58.92;77182.28;5236701;28;20040;-79
2023/05/21 09:04:23;;;;;;;15.90;12.82;;;;;;;-145.79;59.14;77165.31;5244184;28;20021;-79
2023/05/21 09:06:56;;;;;;;11.63;10.43;;;;;;;-145.79;58.73;77150.47;5243727;28;20038;-78
2023/05/21 09:09:32;;;;;;;841.80;633.35;;;;;;;-145.79;58.69;77154.72;5241904;28;20532;-79
2023/05/21 09:12:04;;;;;;;69.07;49.08;;;;;;;-145.79;58.02;77131.41;5238417;28;20389;-80
2023/05/21 09:14:36;;;;;;;42.60;33.40;;;;;;;-145.79;57.77;77125.03;5236456;28;20022;-79
2023/05/21 09:17:08;;;;;;;22.40;16.65;;;;;;;-145.79;56.62;77105.97;5241482;28;20108;-78
2023/05/21 09:20:11;;;;;;;14.88;13.15;;;;;;;-145.79;57.53;77091.13;5242185;28;20026;-78
2023/05/21 09:22:47;;;;;;;123.15;111.07;;;;;;;-145.79;57.50;77089.00;5240761;28;20060;-78
2023/05/21 09:25:24;;;;;;;58.13;51.85;;;;;;;-145.79;57.08;77108.09;5242399;28;20409;-79
2023/05/21 09:27:55;;;;;;;47.70;43.00;;;;;;;-145.79;57.38;77127.16;5241236;28;20021;-77
2023/05/21 09:30:27;;;;;;;26.15;20.42;;;;;;;-145.79;58.22;77133.53;5229235;28;20024;-77
2023/05/21 09:32:59;;;;;;;11.85;10.68;;;;;;;-145.79;58.57;77137.75;5242504;28;20058;-79
2023/05/21 09:35:32;;;;;;;16.55;13.55;;;;;;;-145.79;58.45;77133.53;5244503;28;20025;-84
2023/05/21 09:38:08;;;;;;;23.23;18.83;;;;;;;-145.79;58.72;77146.25;5243683;28;20099;-84
2023/05/21 09:40:44;;;;;;;13.45;12.15;;;;;;;-145.79;58.75;77127.16;5237662;28;20350;-79
2023/05/21 09:43:18;;;;;;;14.75;13.25;;;;;;;-145.79;58.47;77142.00;5243787;28;20048;-84
2023/05/21 09:45:52;;;;;;;;;;;;;;;-145.79;57.74;77099.63;5243095;28;20099;-83
2023/05/21 09:48:40;;;;;;;11.93;10.35;;;;;;;-145.79;58.24;77103.84;5242941;28;19917;-84
2023/05/21 09:51:17;;;;;;;23.85;21.40;;;;;;;-145.79;58.21;77105.97;5237003;28;20499;-86
2023/05/21 09:53:56;;;;;;;11.88;10.70;;;;;;;-145.79;58.48;77078.41;5224577;28;20033;-84
2023/05/21 09:56:30;;;;;;;11.40;10.10;;;;;;;-145.79;58.34;77072.06;5227241;28;20438;-84
2023/05/21 09:59:05;;;;;;;13.05;11.82;;;;;;;-145.79;58.29;77080.53;5242802;28;20128;-84
2023/05/21 10:01:37;;;;;;;11.50;10.35;;;;;;;-145.79;57.95;77078.41;5237435;28;20469;-83
2023/05/21 10:04:09;;;;;;;10.88;9.77;;;;;;;-145.79;58.08;77063.59;5224065;28;20101;-84
2023/05/21 10:06:46;;;;;;;12.38;10.30;;;;;;;-145.79;57.77;77046.63;5222008;28;20030;-85
2023/05/21 10:09:18;;;;;;;10.50;9.50;;;;;;;-145.79;57.39;77040.25;5224403;28;20123;-85
2023/05/21 10:11:53;;;;;;;11.77;10.70;;;;;;;-145.79;57.54;77023.31;5223995;28;20028;-85
2023/05/21 10:14:29;;;;;;;11.73;10.73;;;;;;;-145.79;57.61;77021.19;5228537;28;20026;-84
2023/05/21 10:17:00;;;;;;;10.50;9.60;;;;;;;-145.79;57.20;77004.25;5230249;28;20105;-83
2023/05/21 10:19:35;;;;;;;12.82;11.57;;;;;;;-145.79;56.68;77002.13;5241007;28;20079;-86
2023/05/21 10:22:07;;;;;;;10.95;9.85;;;;;;;-145.79;56.54;76983.03;5231847;28;20511;-84
2023/05/21 10:24:39;;;;;;;12.75;11.70;;;;;;;-145.79;56.35;76972.44;5220766;28;20026;-86
2023/05/21 10:27:12;;;;;;;11.40;10.32;;;;;;;-145.79;56.16;76961.84;5224716;28;20029;-85
2023/05/21 10:29:44;;;;;;;12.27;11.05;;;;;;;-145.79;55.50;76951.25;5240877;28;20021;-86
2023/05/21 10:32:16;;;;;;;12.68;11.45;;;;;;;-145.79;55.47;76978.81;5243528;28;20030;-86
2023/05/21 10:34:50;;;;;;;11.93;10.82;;;;;;;-145.79;55.96;76959.72;5242164;28;20029;-83
2023/05/21 10:37:26;;;;;;;14.30;12.63;;;;;;;-145.79;56.29;76930.06;5240420;28;20021;-84
2023/05/21 10:39:59;;;;;;;12.07;10.98;;;;;;;-145.79;55.90;76919.47;5226388;28;20038;-83
2023/05/21 10:42:31;;;;;;;14.63;12.93;;;;;;;-145.79;55.67;76915.22;5220260;28;20105;-82
2023/05/21 10:45:24;;;;;;;16.17;14.73;;;;;;;-145.79;55.35;76879.19;5219036;28;20232;-82
2023/05/21 10:48:07;;;;;;;14.48;12.02;;;;;;;-145.79;54.68;76860.13;5221934;28;20368;-82
2023/05/21 10:50:57;;;;;;;12.80;11.20;;;;;;;-145.79;54.49;76838.94;5225354;28;20033;-83
2023/05/21 10:53:37;;;;;;;13.27;11.95;;;;;;;-145.79;53.71;76847.41;5218092;28;20496;-83
2023/05/21 10:56:11;;;;;;;13.13;9.90;;;;;;;-145.79;53.32;76821.97;5233122;28;20317;-81
2023/05/21 10:58:59;;;;;;;12.13;10.82;;;;;;;-145.79;53.37;76809.25;5237710;28;20105;-82
2023/05/21 11:01:34;;;;;;;11.88;10.77;;;;;;;-145.79;53.31;76805.00;5236626;28;20676;-82
2023/05/21 11:04:06;;;;;;;11.60;10.50;;;;;;;-145.79;53.12;76800.78;5233699;28;20035;-83
2023/05/21 11:06:37;;;;;;;15.43;12.02;;;;;;;-145.79;52.87;76783.81;5240258;28;20021;-82
2023/05/21 11:09:13;;;;;;;12.23;11.05;;;;;;;-145.79;52.68;76773.22;5241365;28;20029;-80
2023/05/21 11:11:49;;;;;;;17.35;15.70;;;;;;;-145.79;52.40;76800.78;5232491;28;20026;-81
2023/05/21 11:14:38;;;;;;;15.23;13.80;;;;;;;-145.79;52.92;76805.00;5223324;28;20018;-82
2023/05/21 11:17:15;;;;;;;13.75;12.43;;;;;;;-145.79;52.99;76779.59;5234684;28;20061;-81
2023/05/21 11:19:46;;;;;;;16.23;14.48;;;;;;;-145.79;52.43;76783.81;5240052;28;20025;-82
2023/05/21 11:22:20;;;;;;;17.63;16.00;;;;;;;-145.79;52.00;76754.16;5240483;28;20098;-81
2023/05/21 11:24:54;;;;;;;14.07;12.63;;;;;;;-145.79;52.09;76745.69;5239859;28;20049;-78
2023/05/21 11:27:40;;;;;;;12.80;11.60;;;;;;;-145.79;51.68;76720.25;5240984;28;20022;-79
2023/05/21 11:30:16;;;;;;;15.85;14.30;;;;;;;-145.79;50.47;76686.34;5240702;28;20026;-80
2023/05/21 11:33:06;;;;;;;13.55;12.25;;;;;;;-145.79;51.36;76682.09;5242856;28;20030;-83
2023/05/21 11:35:56;;;;;;;15.35;13.88;;;;;;;-145.79;51.33;76663.03;5222064;28;20449;-82
2023/05/21 11:38:29;;;;;;;12.77;11.57;;;;;;;-145.79;51.22;76650.31;5220242;28;20080;-82
2023/05/21 11:41:05;;;;;;;16.50;14.82;;;;;;;-145.79;50.53;76660.91;5238525;28;20128;-80
2023/05/21 11:43:39;;;;;;;14.65;13.18;;;;;;;-145.79;49.81;76631.22;5233370;28;20120;-82
2023/05/21 11:46:12;;;;;;;15.52;13.57;;;;;;;-145.79;49.69;76622.75;5237436;28;20032;-82
2023/05/21 11:48:49;;;;;;;14.70;13.30;;;;;;;-145.79;50.23;76637.59;5237620;28;20068;-82
2023/05/21 11:51:24;;;;;;;15.60;14.10;;;;;;;-145.79;50.13;76622.75;5240876;28;20480;-79
2023/05/21 11:53:56;;;;;;;16.88;14.15;;;;;;;-145.79;49.45;76635.47;5238920;28;20048;-82
2023/05/21 11:56:27;;;;;;;16.02;14.25;;;;;;;-145.79;49.43;76618.53;5240237;28;20045;-82
2023/05/21 11:59:01;;;;;;;25.63;21.52;;;;;;;-145.79;49.63;76624.88;5239713;28;20017;-83
2023/05/21 12:01:32;;;;;;;14.93;13.63;;;;;;;-145.79;49.29;76607.91;5238438;28;20103;-82
2023/05/21 12:04:04;;;;;;;15.73;14.40;;;;;;;-145.79;49.10;76605.81;5236874;28;20132;-83
2023/05/21 12:06:36;;;;;;;16.20;14.57;;;;;;;-145.79;49.02;76610.03;5237497;28;20022;-82
2023/05/21 12:09:09;;;;;;;14.85;13.30;;;;;;;-145.79;48.77;76603.69;5240130;28;20043;-82
2023/05/21 12:11:41;;;;;;;15.43;14.02;;;;;;;-145.79;48.70;76580.38;5241196;28;20033;-82
2023/05/21 12:14:12;;;;;;;14.93;13.50;;;;;;;-145.79;48.25;76571.91;5242356;28;20033;-82
2023/05/21 12:16:44;;;;;;;14.63;13.23;;;;;;;-145.79;48.13;76550.69;5240795;28;20108;-81
2023/05/21 12:19:17;;;;;;;20.15;17.85;;;;;;;-145.79;47.79;76531.63;5240585;28;20025;-82
2023/05/21 12:21:48;;;;;;;30.45;27.52;;;;;;;-145.79;47.21;76521.03;5240948;28;20121;-81
2023/05/21 12:24:20;;;;;;;14.95;13.40;;;;;;;-145.79;47.30;76516.78;5235585;28;20520;-83
2023/05/21 12:26:51;;;;;;;13.90;12.60;;;;;;;-145.79;47.32;76497.72;5243708;28;20032;-78
2023/05/21 12:29:22;;;;;;;14.90;13.40;;;;;;;-145.79;46.95;76487.13;5236064;28;20039;-83
2023/05/21 12:31:58;;;;;;;14.55;12.98;;;;;;;-145.79;46.82;76487.13;5242090;28;20075;-82
2023/05/21 12:34:58;;;;;;;13.77;12.32;;;;;;;-145.79;47.06;76499.84;5241709;28;20033;-81
2023/05/21 12:37:31;;;;;;;14.48;13.13;;;;;;;-145.79;47.21;76521.03;5236647;28;20025;-83
2023/05/21 12:40:10;;;;;;;15.02;13.55;;;;;;;-145.79;47.55;76538.00;5244021;28;20029;-83
2023/05/21 12:42:43;;;;;;;13.90;12.65;;;;;;;-145.79;48.00;76561.28;5244124;28;20033;-82
2023/05/21 12:45:17;;;;;;;15.32;13.43;;;;;;;-145.79;47.94;76552.81;5243161;28;20071;-84
2023/05/21 12:47:54;;;;;;;14.65;13.15;;;;;;;-145.79;47.83;76554.94;5233465;28;20124;-83
2023/05/21 12:50:26;;;;;;;15.88;14.43;;;;;;;-145.79;48.11;76538.00;5234635;28;20037;-82
2023/05/21 12:52:57;;;;;;;16.20;14.77;;;;;;;-145.79;47.75;76535.88;5238107;28;20500;-82
2023/05/21 12:55:31;;;;;;;15.43;13.85;;;;;;;-145.79;47.58;76531.63;5228267;28;20055;-78
2023/05/21 12:58:06;;;;;;;19.63;17.65;;;;;;;-145.79;47.63;76529.50;5243364;28;20471;-75
2023/05/21 13:00:41;;;;;;;15.60;14.02;;;;;;;-145.79;47.92;76491.38;5241484;28;20087;-80
2023/05/21 13:03:13;;;;;;;14.82;13.48;;;;;;;-145.79;47.06;76485.00;5243467;28;20083;-81
2023/05/21 13:05:44;;;;;;;16.10;14.60;;;;;;;-145.79;46.62;76480.78;5229811;28;20440;-83
2023/05/21 13:08:15;;;;;;;15.82;13.18;;;;;;;-145.79;46.77;76474.41;5223855;28;20117;-81
2023/05/21 13:10:49;;;;;;;16.55;14.85;;;;;;;-145.79;46.69;76478.66;5238256;28;20028;-80
2023/05/21 13:13:21;;;;;;;14.90;13.48;;;;;;;-145.79;46.68;76444.75;5222357;28;20041;-82
2023/05/21 13:15:53;;;;;;;14.45;12.95;;;;;;;-145.79;46.67;76453.22;5221641;28;20034;-80
2023/05/21 13:18:24;;;;;;;14.43;13.05;;;;;;;-145.79;46.48;76474.41;5222197;28;20022;-81
2023/05/21 13:20:56;;;;;;;14.55;13.25;;;;;;;-145.79;46.58;76470.19;5223039;28;20049;-82
2023/05/21 13:23:27;;;;;;;14.55;13.05;;;;;;;-145.79;46.71;76487.13;5221726;28;20033;-82
2023/05/21 13:25:58;;;;;;;15.45;14.05;;;;;;;-145.79;46.25;76470.19;5222054;28;20068;-81
2023/05/21 13:28:30;;;;;;;14.45;13.23;;;;;;;-145.79;46.24;76482.88;5226602;28;20110;-81
2023/05/21 13:31:01;;;;;;;18.67;16.98;;;;;;;-145.79;46.34;76461.69;5226390;28;20050;-79
2023/05/21 13:33:32;;;;;;;17.08;15.25;;;;;;;-145.79;46.33;76465.94;5230452;28;20034;-81
2023/05/21 13:36:04;;;;;;;15.27;13.75;;;;;;;-145.79;46.37;76451.09;5227870;28;20426;-81
2023/05/21 13:38:35;;;;;;;13.60;12.27;;;;;;;-145.79;46.45;76415.06;5221316;28;20029;-80
2023/05/21 13:41:06;;;;;;;13.05;11.75;;;;;;;-145.79;46.01;76434.16;5225576;28;20029;-82
2023/05/21 13:43:41;;;;;;;13.73;12.45;;;;;;;-145.79;45.89;76444.75;5240515;28;20480;-81
2023/05/21 13:46:12;;;;;;;14.00;12.38;;;;;;;-145.79;45.86;76448.97;5231920;28;20033;-81
2023/05/21 13:48:45;;;;;;;14.35;12.88;;;;;;;-145.79;45.90;76444.75;5242148;28;20428;-82
2023/05/21 13:51:16;;;;;;;14.50;13.13;;;;;;;-145.79;45.94;76440.50;5239378;28;20033;-82
2023/05/21 13:53:47;;;;;;;15.13;13.65;;;;;;;-145.79;45.70;76406.59;5240647;28;20034;-84
2023/05/21 13:56:22;;;;;;;12.93;11.82;;;;;;;-145.79;45.62;76404.47;5242512;28;20085;-83
2023/05/21 13:58:54;;;;;;;15.68;14.10;;;;;;;-145.79;45.64;76368.47;5241575;28;20030;-83
2023/05/21 14:01:25;;;;;;;14.30;12.88;;;;;;;-145.79;45.83;76368.47;5240061;28;20037;-84
2023/05/21 14:03:57;;;;;;;14.15;12.77;;;;;;;-145.79;44.96;76368.47;5239791;28;20109;-83
2023/05/21 14:06:29;;;;;;;13.88;12.65;;;;;;;-145.79;44.99;76355.75;5239005;28;20013;-74
2023/05/21 14:09:01;;;;;;;12.23;10.93;;;;;;;-145.79;45.11;76345.16;5240570;28;20017;-76
2023/05/21 14:11:32;;;;;;;19.27;17.30;;;;;;;-145.79;44.84;76349.38;5238937;28;20034;-73
2023/05/21 14:14:04;;;;;;;14.23;12.90;;;;;;;-145.79;44.99;76351.50;5240444;28;20048;-74
2023/05/21 14:16:35;;;;;;;14.00;12.55;;;;;;;-145.79;44.98;76359.97;5241196;28;20083;-73
2023/05/21 14:19:07;;;;;;;13.32;11.85;;;;;;;-145.79;44.73;76353.63;5237665;28;20040;-76
2023/05/21 14:21:41;;;;;;;12.40;11.27;;;;;;;-145.79;44.81;76353.63;5238883;28;20045;-85
2023/05/21 14:24:15;;;;;;;14.93;13.35;;;;;;;-145.79;44.97;76368.47;5235285;28;20030;-79
2023/05/21 14:26:46;;;;;;;24.98;22.42;;;;;;;-145.79;45.20;76347.25;5254426;28;20017;-80
2023/05/21 14:29:17;;;;;;;22.85;20.60;;;;;;;-145.79;45.29;76332.44;5246952;28;20040;-81
2023/05/21 14:31:49;;;;;;;14.10;12.57;;;;;;;-145.79;45.15;76336.66;5221842;28;20049;-80
2023/05/21 14:34:20;;;;;;;15.20;13.25;;;;;;;-145.79;44.98;76336.66;5220509;28;20409;-79
2023/05/21 14:36:52;;;;;;;15.10;13.55;;;;;;;-145.79;45.27;76351.50;5229264;28;20477;-82
2023/05/21 14:39:23;;;;;;;13.15;11.95;;;;;;;-145.79;45.34;76338.78;5235934;28;20032;-76
2023/05/21 14:41:54;;;;;;;14.15;12.77;;;;;;;-145.79;45.17;76347.25;5220346;28;20034;-81
2023/05/21 14:44:26;;;;;;;13.70;12.50;;;;;;;-145.79;45.60;76336.66;5219469;28;20104;-81
2023/05/21 14:46:57;;;;;;;14.63;13.30;;;;;;;-145.79;45.09;76334.56;5219108;28;20036;-81
2023/05/21 14:49:28;;;;;;;25.58;23.15;;;;;;;-145.79;45.26;76317.59;5237511;28;20017;-79
2023/05/21 14:52:00;;;;;;;15.63;14.13;;;;;;;-145.79;45.26;76300.66;5243043;28;20048;-79
2023/05/21 14:54:31;;;;;;;12.52;11.23;;;;;;;-145.79;45.44;76298.53;5236567;28;20057;-81
2023/05/21 14:57:02;;;;;;;13.70;12.32;;;;;;;-145.79;45.01;76304.88;5241463;28;20459;-80
2023/05/21 14:59:34;;;;;;;13.05;11.75;;;;;;;-145.79;45.08;76323.97;5244767;28;20499;-78
2023/05/21 15:02:05;;;;;;;12.77;11.55;;;;;;;-145.79;45.28;76343.03;5238101;28;20475;-82
2023/05/21 15:04:37;;;;;;;13.25;11.95;;;;;;;-145.79;45.47;76355.75;5240906;28;20060;-80
2023/05/21 15:07:08;;;;;;;12.50;11.20;;;;;;;-145.79;45.99;76347.25;5241747;28;20451;-79
2023/05/21 15:09:39;;;;;;;12.35;11.13;;;;;;;-145.79;45.49;76343.03;5225055;28;20092;-83
2023/05/21 15:12:11;;;;;;;16.02;14.35;;;;;;;-145.79;45.13;76343.03;5242346;28;20021;-84
2023/05/21 15:14:42;;;;;;;12.43;11.18;;;;;;;-145.79;45.42;76345.16;5240922;28;20041;-76
2023/05/21 15:17:13;;;;;;;12.38;11.18;;;;;;;-145.79;45.41;76332.44;5241386;28;20075;-75
2023/05/21 15:19:45;;;;;;;12.75;11.52;;;;;;;-145.79;45.73;76328.19;5227373;28;20028;-76
2023/05/21 15:22:16;;;;;;;12.05;10.95;;;;;;;-145.79;45.20;76292.16;5220735;28;20129;-82
2023/05/21 15:24:47;;;;;;;12.70;11.60;;;;;;;-145.79;45.06;76302.75;5219278;28;20112;-80
2023/05/21 15:27:19;;;;;;;16.33;11.15;;;;;;;-145.79;45.34;76296.41;5223583;28;20466;-77
2023/05/21 15:29:51;;;;;;;12.50;11.20;;;;;;;-145.79;45.16;76298.53;5231209;28;20033;-77
2023/05/21 15:32:22;;;;;;;15.35;12.30;;;;;;;-145.79;45.27;76292.16;5233561;28;20038;-76
2023/05/21 15:34:53;;;;;;;12.10;10.90;;;;;;;-145.79;45.42;76298.53;5236574;28;20036;-77
2023/05/21 15:37:25;;;;;;;12.70;11.68;;;;;;;-145.79;45.06;76296.41;5231510;28;20496;-76
2023/05/21 15:39:56;;;;;;;13.25;12.05;;;;;;;-145.79;44.87;76304.88;5240696;28;20022;-75
2023/05/21 15:42:30;;;;;;;14.40;12.00;;;;;;;-145.79;45.11;76294.28;5237527;28;20496;-76
2023/05/21 15:45:01;;;;;;;13.55;12.25;;;;;;;-145.79;45.13;76300.66;5237410;28;20029;-78
2023/05/21 15:47:33;;;;;;;13.10;11.90;;;;;;;-145.79;45.23;76287.94;5236884;28;20022;-78
2023/05/21 15:50:05;;;;;;;14.63;12.48;;;;;;;-145.79;45.18;76283.69;5233097;28;20100;-77
2023/05/21 15:52:36;;;;;;;12.70;11.50;;;;;;;-145.79;44.91;76294.28;5242608;28;20032;-74
2023/05/21 15:55:08;;;;;;;13.68;12.48;;;;;;;-145.79;44.92;76294.28;5232895;28;20447;-75
2023/05/21 15:57:39;;;;;;;16.92;15.35;;;;;;;-145.79;44.96;76287.94;5241576;28;20034;-75
2023/05/21 16:00:11;;;;;;;13.90;12.50;;;;;;;-145.79;45.28;76292.16;5241481;28;20057;-75
2023/05/21 16:02:43;;;;;;;13.35;12.05;;;;;;;-145.79;45.36;76273.09;5228139;28;20050;-75
2023/05/21 16:05:14;;;;;;;14.38;12.35;;;;;;;-145.79;44.89;76281.56;5225615;28;20018;-75
2023/05/21 16:07:48;;;;;;;13.00;11.70;;;;;;;-145.79;44.91;76270.97;5222013;28;20041;-75
2023/05/21 16:10:20;;;;;;;13.95;12.57;;;;;;;-145.79;44.87;76264.63;5222812;28;20065;-75
2023/05/21 16:12:51;;;;;;;13.70;12.32;;;;;;;-145.79;44.94;76277.34;5233368;28;20408;-77
2023/05/21 16:15:22;;;;;;;13.50;12.10;;;;;;;-145.79;44.81;76254.03;5239779;28;20049;-75
2023/05/21 16:17:57;;;;;;;14.07;12.68;;;;;;;-145.79;44.29;76260.38;5227360;28;20084;-74
2023/05/21 16:20:29;;;;;;;13.30;10.18;;;;;;;-145.79;44.16;76237.06;5243385;28;20388;-78
2023/05/21 16:23:02;;;;;;;12.93;11.73;;;;;;;-145.79;43.89;76258.25;5224221;28;20075;-77
2023/05/21 16:25:34;;;;;;;12.70;11.50;;;;;;;-145.79;44.23;76245.56;5237622;28;20062;-73
2023/05/21 16:28:05;;;;;;;12.52;11.27;;;;;;;-145.79;44.48;76232.84;5243097;28;20369;-75
2023/05/21 16:30:37;;;;;;;12.55;11.45;;;;;;;-145.79;44.66;76243.44;5232419;28;20034;-75
2023/05/21 16:33:08;;;;;;;12.32;10.98;;;;;;;-145.79;44.88;76237.06;5235113;28;20030;-75
2023/05/21 16:35:39;;;;;;;12.48;11.20;;;;;;;-145.79;44.83;76230.72;5224899;28;20045;-74
2023/05/21 16:38:11;;;;;;;11.50;10.48;;;;;;;-145.79;44.89;76249.78;5238404;28;20032;-75
2023/05/21 16:40:44;;;;;;;85.35;74.18;;;;;;;-145.79;44.67;76270.97;5239841;28;20029;-77
2023/05/21 16:43:20;;;;;;;57.60;51.50;;;;;;;-145.79;44.75;76270.97;5221524;28;20030;-74
2023/05/21 16:45:52;;;;;;;22.48;20.08;;;;;;;-145.79;44.53;76283.69;5237385;28;20104;-74
2023/05/21 16:48:23;;;;;;;14.40;13.00;;;;;;;-145.79;44.84;76302.75;5239841;28;20033;-74
2023/05/21 16:50:54;;;;;;;15.35;13.52;;;;;;;-145.79;45.31;76326.06;5229333;28;20109;-76
2023/05/21 16:53:26;;;;;;;19.05;16.25;;;;;;;-145.79;45.37;76330.31;5228346;28;20077;-75
